sensor_id;sensor_type;location;lat;lon;timestamp;pressure;altitude;pressure_sealevel;temperature;humidity
74310;BME280;62722;51.142;17.052;2023-04-05T00:00:51;100977.72;;;0.52;67.71
74310;BME280;62722;51.142;17.052;2023-04-05T00:03:19;100974.25;;;0.53;67.61
74310;BME280;62722;51.142;17.052;2023-04-05T00:05:46;100964.75;;;0.52;67.80
74310;BME280;62722;51.142;17.052;2023-04-05T00:08:14;100963.97;;;0.47;68.72
74310;BME280;62722;51.142;17.052;2023-04-05T00:10:52;100960.50;;;0.45;68.87
74310;BME280;62722;51.142;17.052;2023-04-05T00:13:20;100965.75;;;0.42;69.13
74310;BME280;62722;51.142;17.052;2023-04-05T00:15:48;100964.13;;;0.35;69.70
74310;BME280;62722;51.142;17.052;2023-04-05T00:18:16;100959.78;;;0.35;69.63
74310;BME280;62722;51.142;17.052;2023-04-05T00:20:49;100965.81;;;0.37;69.46
74310;BME280;62722;51.142;17.052;2023-04-05T00:23:16;100970.34;;;0.20;70.01
74310;BME280;62722;51.142;17.052;2023-04-05T00:25:44;100961.75;;;0.15;70.84
74310;BME280;62722;51.142;17.052;2023-04-05T00:28:13;100958.41;;;0.07;71.29
74310;BME280;62722;51.142;17.052;2023-04-05T00:30:40;100957.59;;;0.02;72.19
74310;BME280;62722;51.142;17.052;2023-04-05T00:33:08;100957.56;;;0.07;71.58
74310;BME280;62722;51.142;17.052;2023-04-05T00:35:35;100953.19;;;0.10;71.33
74310;BME280;62722;51.142;17.052;2023-04-05T00:38:02;100949.72;;;0.10;71.19
74310;BME280;62722;51.142;17.052;2023-04-05T00:40:30;100949.69;;;0.13;70.47
74310;BME280;62722;51.142;17.052;2023-04-05T00:42:58;100962.66;;;0.13;70.28
74310;BME280;62722;51.142;17.052;2023-04-05T00:45:27;100957.38;;;0.19;69.76
74310;BME280;62722;51.142;17.052;2023-04-05T00:47:54;100957.44;;;0.16;69.94
74310;BME280;62722;51.142;17.052;2023-04-05T00:50:22;100954.00;;;0.12;70.72
74310;BME280;62722;51.142;17.052;2023-04-05T00:52:54;100952.41;;;0.02;71.28
74310;BME280;62722;51.142;17.052;2023-04-05T00:55:22;100952.41;;;0.04;71.88
74310;BME280;62722;51.142;17.052;2023-04-05T00:57:49;100953.41;;;-0.10;72.07
74310;BME280;62722;51.142;17.052;2023-04-05T01:00:19;100948.31;;;-0.17;72.57
74310;BME280;62722;51.142;17.052;2023-04-05T01:02:51;100945.69;;;-0.16;72.64
74310;BME280;62722;51.142;17.052;2023-04-05T01:05:29;100937.19;;;-0.27;73.06
74310;BME280;62722;51.142;17.052;2023-04-05T01:08:06;100938.00;;;-0.25;72.69
74310;BME280;62722;51.142;17.052;2023-04-05T01:10:41;100927.66;;;-0.26;72.40
74310;BME280;62722;51.142;17.052;2023-04-05T01:13:10;100924.13;;;-0.21;72.17
74310;BME280;62722;51.142;17.052;2023-04-05T01:15:37;100932.00;;;-0.27;72.22
74310;BME280;62722;51.142;17.052;2023-04-05T01:18:06;100930.47;;;-0.46;71.44
74310;BME280;62722;51.142;17.052;2023-04-05T01:20:38;100934.72;;;-0.40;71.57
74310;BME280;62722;51.142;17.052;2023-04-05T01:23:25;100933.72;;;-0.29;71.69
74310;BME280;62722;51.142;17.052;2023-04-05T01:26:41;100933.72;;;-0.29;71.48
74310;BME280;62722;51.142;17.052;2023-04-05T01:29:46;100934.59;;;-0.28;71.37
74310;BME280;62722;51.142;17.052;2023-04-05T01:32:31;100928.63;;;-0.33;72.27
74310;BME280;62722;51.142;17.052;2023-04-05T01:35:08;100919.97;;;-0.35;72.46
74310;BME280;62722;51.142;17.052;2023-04-05T01:37:42;100921.66;;;-0.33;72.94
74310;BME280;62722;51.142;17.052;2023-04-05T01:40:11;100920.78;;;-0.30;73.14
74310;BME280;62722;51.142;17.052;2023-04-05T01:42:43;100926.03;;;-0.35;72.10
74310;BME280;62722;51.142;17.052;2023-04-05T01:45:13;100929.50;;;-0.37;71.22
74310;BME280;62722;51.142;17.052;2023-04-05T01:47:41;100929.47;;;-0.36;71.49
74310;BME280;62722;51.142;17.052;2023-04-05T01:50:08;100920.84;;;-0.36;71.52
74310;BME280;62722;51.142;17.052;2023-04-05T01:52:36;100923.47;;;-0.38;72.21
74310;BME280;62722;51.142;17.052;2023-04-05T01:55:03;100929.63;;;-0.50;72.22
74310;BME280;62722;51.142;17.052;2023-04-05T01:57:31;100921.81;;;-0.45;71.91
74310;BME280;62722;51.142;17.052;2023-04-05T01:59:58;100919.19;;;-0.42;72.54
74310;BME280;62722;51.142;17.052;2023-04-05T02:02:28;100920.13;;;-0.49;72.48
74310;BME280;62722;51.142;17.052;2023-04-05T02:04:55;100923.59;;;-0.50;72.62
74310;BME280;62722;51.142;17.052;2023-04-05T02:07:23;100914.91;;;-0.44;72.06
74310;BME280;62722;51.142;17.052;2023-04-05T02:09:51;100919.13;;;-0.37;72.69
74310;BME280;62722;51.142;17.052;2023-04-05T02:12:19;100914.81;;;-0.40;72.32
74310;BME280;62722;51.142;17.052;2023-04-05T02:14:47;100906.22;;;-0.42;72.16
74310;BME280;62722;51.142;17.052;2023-04-05T02:17:16;100903.59;;;-0.40;72.86
74310;BME280;62722;51.142;17.052;2023-04-05T02:19:45;100907.91;;;-0.38;73.17
74310;BME280;62722;51.142;17.052;2023-04-05T02:22:13;100908.78;;;-0.40;73.18
74310;BME280;62722;51.142;17.052;2023-04-05T02:24:40;100901.03;;;-0.42;72.86
74310;BME280;62722;51.142;17.052;2023-04-05T02:27:07;100896.66;;;-0.38;72.86
74310;BME280;62722;51.142;17.052;2023-04-05T02:29:35;100883.78;;;-0.46;73.06
74310;BME280;62722;51.142;17.052;2023-04-05T02:32:03;100889.09;;;-0.57;73.72
74310;BME280;62722;51.142;17.052;2023-04-05T02:34:30;100884.78;;;-0.59;74.31
74310;BME280;62722;51.142;17.052;2023-04-05T02:37:00;100894.31;;;-0.61;74.27
74310;BME280;62722;51.142;17.052;2023-04-05T02:39:28;100880.44;;;-0.57;74.35
74310;BME280;62722;51.142;17.052;2023-04-05T02:41:55;100880.50;;;-0.62;75.03
74310;BME280;62722;51.142;17.052;2023-04-05T02:44:23;100883.91;;;-0.58;74.84
74310;BME280;62722;51.142;17.052;2023-04-05T02:46:51;100883.00;;;-0.54;74.55
74310;BME280;62722;51.142;17.052;2023-04-05T02:49:18;100887.31;;;-0.53;74.23
74310;BME280;62722;51.142;17.052;2023-04-05T02:51:46;100885.59;;;-0.53;74.12
74310;BME280;62722;51.142;17.052;2023-04-05T02:54:14;100883.91;;;-0.58;74.14
74310;BME280;62722;51.142;17.052;2023-04-05T02:56:42;100876.28;;;-0.70;74.70
74310;BME280;62722;51.142;17.052;2023-04-05T02:59:09;100884.94;;;-0.74;75.26
74310;BME280;62722;51.142;17.052;2023-04-05T03:01:39;100877.97;;;-0.69;75.53
74310;BME280;62722;51.142;17.052;2023-04-05T03:04:08;100875.34;;;-0.63;75.48
74310;BME280;62722;51.142;17.052;2023-04-05T03:06:37;100876.25;;;-0.69;75.07
74310;BME280;62722;51.142;17.052;2023-04-05T03:09:14;100871.88;;;-0.65;75.50
74310;BME280;62722;51.142;17.052;2023-04-05T03:11:42;100874.41;;;-0.59;75.38
74310;BME280;62722;51.142;17.052;2023-04-05T03:14:09;100864.03;;;-0.56;75.61
74310;BME280;62722;51.142;17.052;2023-04-05T03:16:37;100859.59;;;-0.46;75.64
74310;BME280;62722;51.142;17.052;2023-04-05T03:19:05;100872.56;;;-0.46;75.32
74310;BME280;62722;51.142;17.052;2023-04-05T03:21:33;100869.97;;;-0.46;75.55
74310;BME280;62722;51.142;17.052;2023-04-05T03:24:00;100869.06;;;-0.42;75.50
74310;BME280;62722;51.142;17.052;2023-04-05T03:26:29;100858.72;;;-0.47;75.45
74310;BME280;62722;51.142;17.052;2023-04-05T03:28:58;100876.78;;;-0.38;75.32
74310;BME280;62722;51.142;17.052;2023-04-05T03:31:25;100859.50;;;-0.37;74.83
74310;BME280;62722;51.142;17.052;2023-04-05T03:33:55;100860.31;;;-0.34;75.12
74310;BME280;62722;51.142;17.052;2023-04-05T03:36:22;100867.19;;;-0.31;74.64
74310;BME280;62722;51.142;17.052;2023-04-05T03:38:49;100868.91;;;-0.32;75.39
74310;BME280;62722;51.142;17.052;2023-04-05T03:41:17;100859.53;;;-0.42;75.26
74310;BME280;62722;51.142;17.052;2023-04-05T03:43:47;100865.59;;;-0.41;74.82
74310;BME280;62722;51.142;17.052;2023-04-05T03:46:14;100862.13;;;-0.43;74.78
74310;BME280;62722;51.142;17.052;2023-04-05T03:48:42;100869.00;;;-0.39;74.86
74310;BME280;62722;51.142;17.052;2023-04-05T03:51:09;100862.13;;;-0.43;75.00
74310;BME280;62722;51.142;17.052;2023-04-05T03:53:36;100866.50;;;-0.47;75.01
74310;BME280;62722;51.142;17.052;2023-04-05T03:56:04;100874.31;;;-0.48;75.10
74310;BME280;62722;51.142;17.052;2023-04-05T03:58:32;100864.81;;;-0.51;75.93
74310;BME280;62722;51.142;17.052;2023-04-05T04:01:01;100861.34;;;-0.52;75.60
74310;BME280;62722;51.142;17.052;2023-04-05T04:03:28;100864.84;;;-0.53;75.14
74310;BME280;62722;51.142;17.052;2023-04-05T04:05:56;100872.66;;;-0.56;75.37
74310;BME280;62722;51.142;17.052;2023-04-05T04:08:24;100874.41;;;-0.59;75.69
74310;BME280;62722;51.142;17.052;2023-04-05T04:10:52;100874.44;;;-0.61;75.95
74310;BME280;62722;51.142;17.052;2023-04-05T04:13:19;100877.09;;;-0.67;76.31
74310;BME280;62722;51.142;17.052;2023-04-05T04:15:46;100884.06;;;-0.73;76.70
74310;BME280;62722;51.142;17.052;2023-04-05T04:18:15;100883.16;;;-0.69;76.82
74310;BME280;62722;51.142;17.052;2023-04-05T04:20:42;100885.78;;;-0.71;77.04
74310;BME280;62722;51.142;17.052;2023-04-05T04:23:10;100883.19;;;-0.74;76.95
74310;BME280;62722;51.142;17.052;2023-04-05T04:25:39;100884.91;;;-0.73;76.63
74310;BME280;62722;51.142;17.052;2023-04-05T04:28:12;100887.53;;;-0.74;76.64
74310;BME280;62722;51.142;17.052;2023-04-05T04:30:44;100894.41;;;-0.70;76.99
74310;BME280;62722;51.142;17.052;2023-04-05T04:33:12;100897.00;;;-0.72;76.53
74310;BME280;62722;51.142;17.052;2023-04-05T04:35:41;100896.16;;;-0.72;76.13
74310;BME280;62722;51.142;17.052;2023-04-05T04:38:11;100887.53;;;-0.74;76.63
74310;BME280;62722;51.142;17.052;2023-04-05T04:40:44;100899.59;;;-0.73;76.83
74310;BME280;62722;51.142;17.052;2023-04-05T04:43:13;100898.75;;;-0.74;76.95
74310;BME280;62722;51.142;17.052;2023-04-05T04:45:43;100896.25;;;-0.81;77.10
74310;BME280;62722;51.142;17.052;2023-04-05T04:48:11;100903.09;;;-0.77;77.63
74310;BME280;62722;51.142;17.052;2023-04-05T04:50:45;100900.50;;;-0.77;77.00
74310;BME280;62722;51.142;17.052;2023-04-05T04:53:14;100891.91;;;-0.79;77.13
74310;BME280;62722;51.142;17.052;2023-04-05T04:55:51;100897.06;;;-0.75;77.23
74310;BME280;62722;51.142;17.052;2023-04-05T04:58:21;100904.78;;;-0.70;77.25
74310;BME280;62722;51.142;17.052;2023-04-05T05:00:49;100892.81;;;-0.83;77.20
74310;BME280;62722;51.142;17.052;2023-04-05T05:03:18;100904.00;;;-0.80;78.13
74310;BME280;62722;51.142;17.052;2023-04-05T05:05:49;100899.69;;;-0.79;77.46
74310;BME280;62722;51.142;17.052;2023-04-05T05:08:21;100906.66;;;-0.86;77.28
74310;BME280;62722;51.142;17.052;2023-04-05T05:10:50;100908.31;;;-0.80;77.67
74310;BME280;62722;51.142;17.052;2023-04-05T05:13:18;100895.34;;;-0.79;77.23
74310;BME280;62722;51.142;17.052;2023-04-05T05:15:48;100900.50;;;-0.77;77.03
74310;BME280;62722;51.142;17.052;2023-04-05T05:18:16;100905.66;;;-0.73;76.54
74310;BME280;62722;51.142;17.052;2023-04-05T05:20:44;100910.88;;;-0.77;77.07
74310;BME280;62722;51.142;17.052;2023-04-05T05:23:13;100910.81;;;-0.68;77.32
74310;BME280;62722;51.142;17.052;2023-04-05T05:25:41;100917.69;;;-0.64;77.19
74310;BME280;62722;51.142;17.052;2023-04-05T05:28:08;100909.91;;;-0.64;77.39
74310;BME280;62722;51.142;17.052;2023-04-05T05:30:36;100919.47;;;-0.71;77.29
74310;BME280;62722;51.142;17.052;2023-04-05T05:33:03;100916.88;;;-0.72;77.67
74310;BME280;62722;51.142;17.052;2023-04-05T05:35:31;100913.31;;;-0.62;78.16
74310;BME280;62722;51.142;17.052;2023-04-05T05:38:03;100902.88;;;-0.53;77.19
74310;BME280;62722;51.142;17.052;2023-04-05T05:40:34;100916.56;;;-0.37;76.63
74310;BME280;62722;51.142;17.052;2023-04-05T05:43:01;100914.78;;;-0.35;75.87
74310;BME280;62722;51.142;17.052;2023-04-05T05:45:29;100917.25;;;-0.25;76.23
74310;BME280;62722;51.142;17.052;2023-04-05T05:47:57;100905.97;;;-0.21;75.73
74310;BME280;62722;51.142;17.052;2023-04-05T05:50:24;100909.38;;;-0.16;76.09
74310;BME280;62722;51.142;17.052;2023-04-05T05:52:52;100910.16;;;-0.09;76.08
74310;BME280;62722;51.142;17.052;2023-04-05T05:55:19;100913.53;;;-0.03;75.88
74310;BME280;62722;51.142;17.052;2023-04-05T05:57:48;100910.03;;;0.03;75.73
74310;BME280;62722;51.142;17.052;2023-04-05T06:00:18;100907.34;;;0.11;75.39
74310;BME280;62722;51.142;17.052;2023-04-05T06:02:46;100910.72;;;0.16;75.95
74310;BME280;62722;51.142;17.052;2023-04-05T06:05:14;100919.31;;;0.21;75.94
74310;BME280;62722;51.142;17.052;2023-04-05T06:07:41;100915.78;;;0.25;75.26
74310;BME280;62722;51.142;17.052;2023-04-05T06:10:09;100910.59;;;0.23;74.57
74310;BME280;62722;51.142;17.052;2023-04-05T06:12:38;100909.69;;;0.29;74.75
74310;BME280;62722;51.142;17.052;2023-04-05T06:15:08;100907.84;;;0.37;74.53
74310;BME280;62722;51.142;17.052;2023-04-05T06:17:35;100910.34;;;0.43;74.73
74310;BME280;62722;51.142;17.052;2023-04-05T06:20:08;100906.81;;;0.47;75.43
74310;BME280;62722;51.142;17.052;2023-04-05T06:22:36;100907.53;;;0.58;74.76
74310;BME280;62722;51.142;17.052;2023-04-05T06:25:06;100911.81;;;0.62;73.80
74310;BME280;62722;51.142;17.052;2023-04-05T06:27:33;100904.72;;;0.73;73.18
74310;BME280;62722;51.142;17.052;2023-04-05T06:30:01;100908.03;;;0.81;72.92
74310;BME280;62722;51.142;17.052;2023-04-05T06:32:30;100909.66;;;0.88;73.09
74310;BME280;62722;51.142;17.052;2023-04-05T06:34:59;100900.03;;;0.93;72.13
74310;BME280;62722;51.142;17.052;2023-04-05T06:37:26;100907.91;;;0.90;71.68
74310;BME280;62722;51.142;17.052;2023-04-05T06:39:53;100907.78;;;0.98;71.47
74310;BME280;62722;51.142;17.052;2023-04-05T06:42:21;100904.38;;;0.94;72.11
74310;BME280;62722;51.142;17.052;2023-04-05T06:44:51;100897.25;;;1.06;71.98
74310;BME280;62722;51.142;17.052;2023-04-05T06:47:21;100904.94;;;1.12;71.66
74310;BME280;62722;51.142;17.052;2023-04-05T06:49:49;100912.59;;;1.21;71.78
74310;BME280;62722;51.142;17.052;2023-04-05T06:52:17;100909.94;;;1.24;71.44
74310;BME280;62722;51.142;17.052;2023-04-05T06:54:44;100905.56;;;1.26;71.45
74310;BME280;62722;51.142;17.052;2023-04-05T06:57:12;100907.28;;;1.27;71.55
74310;BME280;62722;51.142;17.052;2023-04-05T06:59:39;100915.00;;;1.31;71.83
74310;BME280;62722;51.142;17.052;2023-04-05T07:02:07;100902.06;;;1.28;71.71
74310;BME280;62722;51.142;17.052;2023-04-05T07:04:34;100907.19;;;1.33;71.44
74310;BME280;62722;51.142;17.052;2023-04-05T07:07:05;100907.94;;;1.38;71.51
74310;BME280;62722;51.142;17.052;2023-04-05T07:09:32;100911.41;;;1.38;72.15
74310;BME280;62722;51.142;17.052;2023-04-05T07:12:02;100906.25;;;1.35;71.53
74310;BME280;62722;51.142;17.052;2023-04-05T07:14:30;100908.00;;;1.35;70.72
74310;BME280;62722;51.142;17.052;2023-04-05T07:16:58;100914.00;;;1.40;71.47
74310;BME280;62722;51.142;17.052;2023-04-05T07:19:25;100902.59;;;1.45;70.56
74310;BME280;62722;51.142;17.052;2023-04-05T07:21:52;100905.19;;;1.47;71.19
74310;BME280;62722;51.142;17.052;2023-04-05T07:24:21;100906.00;;;1.49;71.38
74310;BME280;62722;51.142;17.052;2023-04-05T07:26:50;100899.72;;;1.61;71.13
74310;BME280;62722;51.142;17.052;2023-04-05T07:29:18;100910.06;;;1.64;71.41
74310;BME280;62722;51.142;17.052;2023-04-05T07:31:45;100910.78;;;1.73;70.91
74310;BME280;62722;51.142;17.052;2023-04-05T07:34:14;100906.31;;;1.78;70.99
74310;BME280;62722;51.142;17.052;2023-04-05T07:36:42;100910.56;;;1.82;70.13
74310;BME280;62722;51.142;17.052;2023-04-05T07:39:13;100919.16;;;1.87;70.30
74310;BME280;62722;51.142;17.052;2023-04-05T07:41:42;100924.16;;;1.96;70.59
74310;BME280;62722;51.142;17.052;2023-04-05T07:44:09;100911.91;;;2.03;69.38
74310;BME280;62722;51.142;17.052;2023-04-05T07:46:37;100913.69;;;2.00;69.73
74310;BME280;62722;51.142;17.052;2023-04-05T07:49:09;100926.66;;;2.03;70.46
74310;BME280;62722;51.142;17.052;2023-04-05T07:51:37;100925.09;;;1.94;69.68
74310;BME280;62722;51.142;17.052;2023-04-05T07:54:04;100920.91;;;1.85;70.34
74310;BME280;62722;51.142;17.052;2023-04-05T07:56:32;100922.66;;;1.85;73.46
74310;BME280;62722;51.142;17.052;2023-04-05T07:59:01;100921.75;;;1.87;74.73
74310;BME280;62722;51.142;17.052;2023-04-05T08:01:28;100923.50;;;1.88;75.55
74310;BME280;62722;51.142;17.052;2023-04-05T08:03:56;100922.41;;;1.99;76.78
74310;BME280;62722;51.142;17.052;2023-04-05T08:06:24;100917.94;;;2.04;75.43
74310;BME280;62722;51.142;17.052;2023-04-05T08:08:52;100919.59;;;2.08;76.01
74310;BME280;62722;51.142;17.052;2023-04-05T08:11:19;100918.81;;;2.04;74.80
74310;BME280;62722;51.142;17.052;2023-04-05T08:13:47;100919.53;;;2.11;75.53
74310;BME280;62722;51.142;17.052;2023-04-05T08:16:19;100920.31;;;2.16;75.50
74310;BME280;62722;51.142;17.052;2023-04-05T08:18:46;100908.13;;;2.18;74.13
74310;BME280;62722;51.142;17.052;2023-04-05T08:21:14;100905.63;;;2.12;75.63
74310;BME280;62722;51.142;17.052;2023-04-05T08:23:41;100905.56;;;2.15;75.21
74310;BME280;62722;51.142;17.052;2023-04-05T08:26:08;100902.06;;;2.16;74.28
74310;BME280;62722;51.142;17.052;2023-04-05T08:28:36;100902.91;;;2.18;75.14
74310;BME280;62722;51.142;17.052;2023-04-05T08:31:03;100905.53;;;2.18;75.88
74310;BME280;62722;51.142;17.052;2023-04-05T08:33:32;100896.88;;;2.16;74.17
74310;BME280;62722;51.142;17.052;2023-04-05T08:36:03;100904.81;;;2.10;74.65
74310;BME280;62722;51.142;17.052;2023-04-05T08:38:31;100897.00;;;2.10;75.41
74310;BME280;62722;51.142;17.052;2023-04-05T08:41:07;100898.63;;;2.15;74.69
74310;BME280;62722;51.142;17.052;2023-04-05T08:43:46;100893.31;;;2.20;74.60
74310;BME280;62722;51.142;17.052;2023-04-05T08:46:22;100896.56;;;2.29;73.87
74310;BME280;62722;51.142;17.052;2023-04-05T08:48:54;100897.00;;;2.48;71.41
74310;BME280;62722;51.142;17.052;2023-04-05T08:51:25;100900.06;;;2.67;71.41
74310;BME280;62722;51.142;17.052;2023-04-05T08:53:55;100888.31;;;2.86;70.50
74310;BME280;62722;51.142;17.052;2023-04-05T08:56:26;100894.03;;;3.02;68.88
74310;BME280;62722;51.142;17.052;2023-04-05T08:59:01;100893.63;;;3.17;68.70
74310;BME280;62722;51.142;17.052;2023-04-05T09:01:38;100886.28;;;3.32;67.66
74310;BME280;62722;51.142;17.052;2023-04-05T09:04:15;100880.91;;;3.38;67.42
74310;BME280;62722;51.142;17.052;2023-04-05T09:06:45;100879.53;;;3.56;65.86
74310;BME280;62722;51.142;17.052;2023-04-05T09:09:16;100884.44;;;3.68;64.89
74310;BME280;62722;51.142;17.052;2023-04-05T09:11:44;100883.41;;;3.74;62.47
74310;BME280;62722;51.142;17.052;2023-04-05T09:14:13;100880.19;;;3.64;63.99
74310;BME280;62722;51.142;17.052;2023-04-05T09:16:43;100877.00;;;3.55;62.79
74310;BME280;62722;51.142;17.052;2023-04-05T09:19:14;100876.13;;;3.54;63.18
74310;BME280;62722;51.142;17.052;2023-04-05T09:22:02;100874.50;;;3.50;64.97
74310;BME280;62722;51.142;17.052;2023-04-05T09:24:34;100868.41;;;3.50;65.01
74310;BME280;62722;51.142;17.052;2023-04-05T09:27:08;100875.19;;;3.57;65.07
74310;BME280;62722;51.142;17.052;2023-04-05T09:29:39;100872.41;;;3.63;63.45
74310;BME280;62722;51.142;17.052;2023-04-05T09:32:10;100872.53;;;3.58;60.58
74310;BME280;62722;51.142;17.052;2023-04-05T09:34:42;100877.88;;;3.54;61.31
74310;BME280;62722;51.142;17.052;2023-04-05T09:37:12;100869.38;;;3.47;60.14
74310;BME280;62722;51.142;17.052;2023-04-05T09:39:43;100872.28;;;3.35;61.24
74310;BME280;62722;51.142;17.052;2023-04-05T09:42:13;100865.34;;;3.35;62.09
74310;BME280;62722;51.142;17.052;2023-04-05T09:44:51;100868.50;;;3.47;62.64
74310;BME280;62722;51.142;17.052;2023-04-05T09:47:21;100866.59;;;3.53;62.59
74310;BME280;62722;51.142;17.052;2023-04-05T09:49:52;100867.88;;;3.69;62.50
74310;BME280;62722;51.142;17.052;2023-04-05T09:52:21;100860.31;;;3.89;62.89
74310;BME280;62722;51.142;17.052;2023-04-05T09:54:51;100859.91;;;4.03;61.63
74310;BME280;62722;51.142;17.052;2023-04-05T09:57:19;100848.25;;;4.15;61.42
74310;BME280;62722;51.142;17.052;2023-04-05T09:59:46;100861.75;;;4.29;61.34
74310;BME280;62722;51.142;17.052;2023-04-05T10:02:14;100862.28;;;4.40;61.23
74310;BME280;62722;51.142;17.052;2023-04-05T10:04:44;100856.16;;;4.41;60.58
74310;BME280;62722;51.142;17.052;2023-04-05T10:07:15;100854.16;;;4.49;59.81
74310;BME280;62722;51.142;17.052;2023-04-05T10:09:44;100854.91;;;4.54;60.13
74310;BME280;62722;51.142;17.052;2023-04-05T10:12:20;100850.25;;;4.62;59.36
74310;BME280;62722;51.142;17.052;2023-04-05T10:14:52;100851.94;;;4.65;60.04
74310;BME280;62722;51.142;17.052;2023-04-05T10:17:23;100851.97;;;4.63;59.05
74310;BME280;62722;51.142;17.052;2023-04-05T10:20:05;100850.25;;;4.62;57.92
74310;BME280;62722;51.142;17.052;2023-04-05T10:22:40;100842.63;;;4.56;57.85
74310;BME280;62722;51.142;17.052;2023-04-05T10:25:17;100840.75;;;4.60;59.66
74310;BME280;62722;51.142;17.052;2023-04-05T10:27:51;100835.38;;;4.64;58.32
74310;BME280;62722;51.142;17.052;2023-04-05T10:30:23;100832.78;;;4.64;57.43
74310;BME280;62722;51.142;17.052;2023-04-05T10:33:02;100832.94;;;4.58;58.38
74310;BME280;62722;51.142;17.052;2023-04-05T10:35:42;100819.88;;;4.58;59.22
74310;BME280;62722;51.142;17.052;2023-04-05T10:38:19;100820.22;;;4.75;58.93
74310;BME280;62722;51.142;17.052;2023-04-05T10:40:48;100821.59;;;4.85;59.12
74310;BME280;62722;51.142;17.052;2023-04-05T10:43:22;100817.00;;;5.18;58.61
74310;BME280;62722;51.142;17.052;2023-04-05T10:45:51;100821.41;;;5.41;57.38
74310;BME280;62722;51.142;17.052;2023-04-05T10:48:27;100816.06;;;5.44;55.86
74310;BME280;62722;51.142;17.052;2023-04-05T10:51:23;100809.72;;;5.26;55.46
74310;BME280;62722;51.142;17.052;2023-04-05T10:53:53;100801.94;;;5.00;56.31
74310;BME280;62722;51.142;17.052;2023-04-05T10:56:26;100806.91;;;5.08;54.89
74310;BME280;62722;51.142;17.052;2023-04-05T10:58:55;100809.50;;;5.08;54.89
74310;BME280;62722;51.142;17.052;2023-04-05T11:01:24;100793.81;;;5.08;56.20
74310;BME280;62722;51.142;17.052;2023-04-05T11:03:52;100802.16;;;5.19;57.32
74310;BME280;62722;51.142;17.052;2023-04-05T11:06:23;100805.09;;;5.10;55.69
74310;BME280;62722;51.142;17.052;2023-04-05T11:08:59;100798.44;;;5.00;55.11
74310;BME280;62722;51.142;17.052;2023-04-05T11:11:37;100814.53;;;5.14;55.75
74310;BME280;62722;51.142;17.052;2023-04-05T11:14:19;100798.56;;;5.21;55.65
74310;BME280;62722;51.142;17.052;2023-04-05T11:16:48;100802.41;;;5.36;56.71
74310;BME280;62722;51.142;17.052;2023-04-05T11:19:18;100800.25;;;5.47;57.01
74310;BME280;62722;51.142;17.052;2023-04-05T11:21:46;100809.63;;;5.54;56.70
74310;BME280;62722;51.142;17.052;2023-04-05T11:24:14;100808.91;;;5.49;56.03
74310;BME280;62722;51.142;17.052;2023-04-05T11:26:55;100804.47;;;5.51;56.28
74310;BME280;62722;51.142;17.052;2023-04-05T11:29:47;100808.91;;;5.49;56.25
74310;BME280;62722;51.142;17.052;2023-04-05T11:32:20;100795.13;;;5.44;56.20
74310;BME280;62722;51.142;17.052;2023-04-05T11:34:58;100800.25;;;5.47;56.36
74310;BME280;62722;51.142;17.052;2023-04-05T11:37:53;100800.72;;;5.58;57.16
74310;BME280;62722;51.142;17.052;2023-04-05T11:40:26;100805.31;;;5.76;57.19
74310;BME280;62722;51.142;17.052;2023-04-05T11:42:59;100800.59;;;5.84;57.48
74310;BME280;62722;51.142;17.052;2023-04-05T11:45:29;100804.16;;;5.83;57.27
74310;BME280;62722;51.142;17.052;2023-04-05T11:47:59;100799.63;;;5.88;57.08
74310;BME280;62722;51.142;17.052;2023-04-05T11:50:27;100799.94;;;5.79;56.56
74310;BME280;62722;51.142;17.052;2023-04-05T11:53:09;100800.97;;;5.75;57.71
74310;BME280;62722;51.142;17.052;2023-04-05T11:55:40;100800.84;;;5.78;58.86
74310;BME280;62722;51.142;17.052;2023-04-05T11:58:12;100802.09;;;5.68;58.93
74310;BME280;62722;51.142;17.052;2023-04-05T12:00:39;100798.75;;;5.65;59.48
74310;BME280;62722;51.142;17.052;2023-04-05T12:03:10;100791.84;;;5.62;59.58
74310;BME280;62722;51.142;17.052;2023-04-05T12:05:48;100793.22;;;5.72;59.58
74310;BME280;62722;51.142;17.052;2023-04-05T12:08:16;100794.72;;;5.79;58.04
74310;BME280;62722;51.142;17.052;2023-04-05T12:10:52;100793.91;;;5.77;56.65
74310;BME280;62722;51.142;17.052;2023-04-05T12:13:27;100790.81;;;5.66;57.55
74310;BME280;62722;51.142;17.052;2023-04-05T12:15:56;100790.69;;;5.69;57.15
74310;BME280;62722;51.142;17.052;2023-04-05T12:18:25;100786.28;;;5.71;58.72
74310;BME280;62722;51.142;17.052;2023-04-05T12:20:53;100790.41;;;5.77;57.84
74310;BME280;62722;51.142;17.052;2023-04-05T12:23:21;100782.69;;;5.74;56.83
74310;BME280;62722;51.142;17.052;2023-04-05T12:25:53;100790.53;;;5.74;57.58
74310;BME280;62722;51.142;17.052;2023-04-05T12:28:21;100792.25;;;5.75;58.41
74310;BME280;62722;51.142;17.052;2023-04-05T12:30:51;100799.41;;;5.70;59.63
74310;BME280;62722;51.142;17.052;2023-04-05T12:33:27;100794.38;;;5.65;61.23
74310;BME280;62722;51.142;17.052;2023-04-05T12:35:55;100786.59;;;5.62;63.31
74310;BME280;62722;51.142;17.052;2023-04-05T12:38:24;100785.81;;;5.60;64.56
74310;BME280;62722;51.142;17.052;2023-04-05T12:40:58;100787.41;;;5.64;64.38
74310;BME280;62722;51.142;17.052;2023-04-05T12:43:37;100778.97;;;5.56;64.23
74310;BME280;62722;51.142;17.052;2023-04-05T12:46:05;100780.81;;;5.54;63.21
74310;BME280;62722;51.142;17.052;2023-04-05T12:48:36;100776.31;;;5.58;63.13
74310;BME280;62722;51.142;17.052;2023-04-05T12:51:15;100773.88;;;5.53;62.74
74310;BME280;62722;51.142;17.052;2023-04-05T12:53:50;100770.97;;;5.61;63.08
74310;BME280;62722;51.142;17.052;2023-04-05T12:56:25;100772.72;;;5.60;62.39
74310;BME280;62722;51.142;17.052;2023-04-05T12:58:57;100778.53;;;5.68;60.78
74310;BME280;62722;51.142;17.052;2023-04-05T13:01:25;100777.81;;;5.65;60.20